createdAt,value
2023-06-20T00:02:29.300Z,100013.86
2023-06-20T00:05:07.460Z,100008.23
2023-06-20T00:07:37.258Z,100004.63
2023-06-20T00:10:07.069Z,100003.80
2023-06-20T00:12:36.470Z,100003.80
2023-06-20T00:15:10.486Z,100002.67
2023-06-20T00:17:45.438Z,100001.50
2023-06-20T00:20:15.446Z,100003.14
2023-06-20T00:22:44.945Z,100002.91
2023-06-20T00:25:14.552Z,99996.11
2023-06-20T00:27:43.250Z,100001.15
2023-06-20T00:30:13.249Z,99996.67
2023-06-20T00:32:42.073Z,99994.62
2023-06-20T00:35:11.147Z,99991.81
2023-06-20T00:37:40.327Z,99987.36
2023-06-20T00:40:09.615Z,99987.01
2023-06-20T00:42:38.519Z,99980.66
2023-06-20T00:45:29.611Z,99983.04
2023-06-20T00:47:59.884Z,99978.87
2023-06-20T00:50:35.244Z,99980.45
2023-06-20T00:53:08.407Z,99980.55
2023-06-20T00:55:45.979Z,99982.29
2023-06-20T00:58:18.460Z,99980.48
2023-06-20T01:00:51.504Z,99981.13
2023-06-20T01:03:25.760Z,99985.42
2023-06-20T01:06:16.964Z,99981.41
2023-06-20T01:09:27.721Z,99980.80
2023-06-20T01:12:29.109Z,99980.05
2023-06-20T01:15:15.323Z,99982.34
2023-06-20T01:17:56.960Z,99980.17
2023-06-20T01:20:34.145Z,99978.58
2023-06-20T01:23:11.665Z,99976.49
2023-06-20T01:26:06.268Z,99979.59
2023-06-20T01:28:40.149Z,99982.02
2023-06-20T01:31:12.762Z,99981.56
2023-06-20T01:34:09.513Z,99979.25
2023-06-20T01:36:43.815Z,99978.06
2023-06-20T01:39:24.368Z,99976.02
2023-06-20T01:41:53.588Z,99971.63
2023-06-20T01:44:22.976Z,99974.63
2023-06-20T01:46:52.185Z,99974.16
2023-06-20T01:49:21.242Z,99977.55
2023-06-20T01:51:57.242Z,99974.66
2023-06-20T01:54:28.962Z,99974.00
2023-06-20T01:57:01.032Z,99974.17
2023-06-20T01:59:30.375Z,99970.49
2023-06-20T02:02:00.969Z,99969.70
2023-06-20T02:04:30.557Z,99971.13
2023-06-20T02:07:00.080Z,99971.77
2023-06-20T02:09:29.978Z,99974.77
2023-06-20T02:11:59.792Z,99974.44
2023-06-20T02:14:28.718Z,99975.08
2023-06-20T02:16:58.698Z,99976.27
2023-06-20T02:19:28.127Z,99973.68
2023-06-20T02:21:58.643Z,99970.64
2023-06-20T02:24:29.194Z,99965.79
2023-06-20T02:26:59.595Z,99965.71
2023-06-20T02:29:33.596Z,99969.48
2023-06-20T02:32:04.487Z,99972.44
2023-06-20T02:34:35.206Z,99974.45
2023-06-20T02:37:06.141Z,99974.81
2023-06-20T02:39:35.110Z,99978.14
2023-06-20T02:42:06.046Z,99983.61
2023-06-20T02:44:34.630Z,99983.64
2023-06-20T02:47:15.498Z,99984.10
2023-06-20T02:50:03.357Z,99989.84
2023-06-20T02:52:55.842Z,99988.71
2023-06-20T02:55:56.634Z,99986.88
2023-06-20T02:58:29.489Z,99989.65
2023-06-20T03:01:05.149Z,99990.39
2023-06-20T03:03:41.677Z,99994.67
2023-06-20T03:06:16.989Z,99994.73
2023-06-20T03:08:52.359Z,99991.94
2023-06-20T03:11:27.244Z,99987.88
2023-06-20T03:14:06.670Z,99988.34
2023-06-20T03:16:39.776Z,99982.16
2023-06-20T03:19:16.126Z,99982.67
2023-06-20T03:21:46.351Z,99986.80
2023-06-20T03:24:15.684Z,99987.72
2023-06-20T03:26:44.520Z,99990.98
2023-06-20T03:29:13.329Z,99998.52
2023-06-20T03:31:42.684Z,100003.68
2023-06-20T03:34:11.750Z,100005.04
2023-06-20T03:36:41.146Z,100004.06
2023-06-20T03:39:10.335Z,100005.59
2023-06-20T03:41:39.141Z,100007.67
2023-06-20T03:44:07.685Z,100009.36
2023-06-20T03:46:36.624Z,100012.97
2023-06-20T03:49:06.124Z,100016.01
2023-06-20T03:51:36.197Z,100016.66
2023-06-20T03:54:07.039Z,100012.79
2023-06-20T03:56:36.038Z,100015.04
2023-06-20T03:59:05.350Z,100016.89
2023-06-20T04:01:34.201Z,100018.81
2023-06-20T04:04:05.699Z,100021.11
2023-06-20T04:06:35.215Z,100027.12
2023-06-20T04:09:06.031Z,100026.41
2023-06-20T04:11:35.136Z,100022.13
2023-06-20T04:14:06.978Z,100016.99
2023-06-20T04:16:43.093Z,100016.30
2023-06-20T04:19:18.680Z,100011.70
2023-06-20T04:21:53.413Z,100014.54
2023-06-20T04:24:26.059Z,100015.09
2023-06-20T04:27:00.711Z,100016.92
2023-06-20T04:29:33.404Z,100016.12
2023-06-20T04:32:09.551Z,100016.42
2023-06-20T04:34:43.916Z,100012.00
2023-06-20T04:37:17.956Z,100013.70
2023-06-20T04:39:49.463Z,100011.41
2023-06-20T04:42:24.101Z,100009.57
2023-06-20T04:44:54.500Z,100004.77
2023-06-20T04:47:23.849Z,100003.46
2023-06-20T04:49:52.793Z,100004.91
2023-06-20T04:52:25.275Z,100000.23
2023-06-20T04:55:09.947Z,100000.45
2023-06-20T04:57:43.569Z,100002.35
2023-06-20T05:00:17.690Z,100006.16
2023-06-20T05:02:50.163Z,100002.54
2023-06-20T05:05:22.925Z,100005.00
2023-06-20T05:07:55.086Z,100005.82
2023-06-20T05:10:35.219Z,100008.86
2023-06-20T05:13:09.928Z,100011.48
2023-06-20T05:15:42.274Z,100002.27
2023-06-20T05:18:20.814Z,100002.31
2023-06-20T05:20:59.872Z,100000.05
2023-06-20T05:23:32.678Z,99996.09
2023-06-20T05:26:03.570Z,99999.11
2023-06-20T05:28:34.097Z,100006.39
2023-06-20T05:31:05.611Z,100009.86
2023-06-20T05:33:34.679Z,100019.89
2023-06-20T05:36:04.262Z,100023.44
2023-06-20T05:38:33.244Z,100026.97
2023-06-20T05:41:02.878Z,100025.91
2023-06-20T05:43:32.675Z,100023.91
2023-06-20T05:46:01.462Z,100031.85
2023-06-20T05:48:31.802Z,100033.30
2023-06-20T05:51:01.671Z,100035.54
2023-06-20T05:53:31.106Z,100039.30
2023-06-20T05:56:00.195Z,100040.02
2023-06-20T05:58:30.324Z,100046.47
2023-06-20T06:01:00.695Z,100047.98
2023-06-20T06:03:31.986Z,100052.73
2023-06-20T06:06:02.376Z,100056.17
2023-06-20T06:08:31.203Z,100057.58
2023-06-20T06:11:00.284Z,100061.05
2023-06-20T06:13:30.621Z,100064.70
2023-06-20T06:16:01.188Z,100071.67
2023-06-20T06:18:32.253Z,100073.39
2023-06-20T06:21:01.487Z,100071.74
2023-06-20T06:23:31.208Z,100076.93
2023-06-20T06:26:00.408Z,100075.26
2023-06-20T06:28:32.366Z,100081.25
2023-06-20T06:31:02.950Z,100076.02
2023-06-20T06:33:33.068Z,100074.40
2023-06-20T06:36:02.117Z,100067.02
2023-06-20T06:38:34.177Z,100064.95
2023-06-20T06:41:04.296Z,100066.96
2023-06-20T06:43:33.198Z,100069.98
2023-06-20T06:46:02.657Z,100075.36
2023-06-20T06:48:32.092Z,100081.34
2023-06-20T06:51:01.839Z,100082.14
2023-06-20T06:53:31.017Z,100083.08
2023-06-20T06:56:00.091Z,100086.34
2023-06-20T06:58:28.895Z,100084.59
2023-06-20T07:00:58.506Z,100082.05
2023-06-20T07:03:27.823Z,100082.02
2023-06-20T07:05:57.294Z,100080.12
2023-06-20T07:08:26.096Z,100079.26
2023-06-20T07:10:56.204Z,100078.77
2023-06-20T07:13:25.724Z,100081.11
2023-06-20T07:15:55.272Z,100082.48
2023-06-20T07:18:25.074Z,100079.59
2023-06-20T07:20:54.525Z,100078.34
2023-06-20T07:23:23.848Z,100078.04
2023-06-20T07:25:53.555Z,100074.59
2023-06-20T07:28:22.746Z,100072.86
2023-06-20T07:30:51.620Z,100071.10
2023-06-20T07:33:20.628Z,100068.50
2023-06-20T07:35:49.957Z,100066.54
2023-06-20T07:38:20.114Z,100070.09
2023-06-20T07:40:49.363Z,100073.38
2023-06-20T07:43:20.969Z,100069.29
2023-06-20T07:45:50.000Z,100070.55
2023-06-20T07:48:19.084Z,100067.40
2023-06-20T07:50:47.757Z,100062.20
2023-06-20T07:53:16.736Z,100063.63
2023-06-20T07:55:45.552Z,100058.81
2023-06-20T07:58:14.649Z,100061.36
2023-06-20T08:00:44.931Z,100063.44
2023-06-20T08:03:14.348Z,100061.55
2023-06-20T08:05:43.580Z,100062.37
2023-06-20T08:08:12.772Z,100059.95
2023-06-20T08:10:41.863Z,100063.20
2023-06-20T08:13:12.309Z,100064.39
2023-06-20T08:15:41.320Z,100061.25
2023-06-20T08:18:10.429Z,100063.98
2023-06-20T08:20:39.492Z,100058.84
2023-06-20T08:23:08.728Z,100053.09
2023-06-20T08:25:38.182Z,100051.18
2023-06-20T08:28:14.708Z,100050.45
2023-06-20T08:30:44.763Z,100056.63
2023-06-20T08:33:13.923Z,100057.13
2023-06-20T08:35:42.967Z,100054.31
2023-06-20T08:38:12.248Z,100049.91
2023-06-20T08:40:41.242Z,100051.68
2023-06-20T08:43:16.787Z,100055.49
2023-06-20T08:45:46.415Z,100055.52
2023-06-20T08:48:16.040Z,100058.91
2023-06-20T08:50:48.932Z,100058.30
2023-06-20T08:53:22.707Z,100056.59
2023-06-20T08:55:54.268Z,100059.57
2023-06-20T08:58:23.968Z,100055.28
2023-06-20T09:00:53.160Z,100057.60
2023-06-20T09:03:22.363Z,100056.48
2023-06-20T09:05:51.971Z,100059.66
2023-06-20T09:08:21.705Z,100057.91
2023-06-20T09:11:06.842Z,100057.27
2023-06-20T09:13:36.402Z,100055.98
2023-06-20T09:16:12.900Z,100059.71
2023-06-20T09:18:42.647Z,100058.17
2023-06-20T09:21:18.078Z,100058.20
2023-06-20T09:23:47.487Z,100053.43
2023-06-20T09:26:19.570Z,100049.83
2023-06-20T09:28:48.644Z,100049.14
2023-06-20T09:31:19.065Z,100051.40
2023-06-20T09:33:48.353Z,100048.38
2023-06-20T09:36:22.777Z,100048.36
2023-06-20T09:38:57.801Z,100044.17
2023-06-20T09:41:26.912Z,100045.83
2023-06-20T09:43:56.366Z,100043.80
2023-06-20T09:46:25.379Z,100044.77
2023-06-20T09:48:55.723Z,100039.20
2023-06-20T09:51:26.164Z,100035.65
2023-06-20T09:54:25.148Z,100032.38
2023-06-20T09:56:59.493Z,100036.45
2023-06-20T09:59:29.739Z,100030.77
2023-06-20T10:02:00.570Z,100032.40
2023-06-20T10:04:31.046Z,100033.90
2023-06-20T10:07:00.769Z,100034.83
2023-06-20T10:09:30.088Z,100038.55
2023-06-20T10:11:59.073Z,100034.70
2023-06-20T10:14:27.947Z,100030.94
2023-06-20T10:16:56.642Z,100026.27
2023-06-20T10:19:25.634Z,100025.89
2023-06-20T10:22:01.647Z,100028.96
2023-06-20T10:24:32.004Z,100027.77
2023-06-20T10:27:02.043Z,100025.52
2023-06-20T10:29:31.260Z,100019.40
2023-06-20T10:32:07.819Z,100021.89
2023-06-20T10:34:42.886Z,100021.05
2023-06-20T10:37:19.127Z,100018.55
2023-06-20T10:39:58.565Z,100019.92
2023-06-20T10:42:36.547Z,100016.47
2023-06-20T10:45:22.841Z,100016.10
2023-06-20T10:47:52.508Z,100012.15
2023-06-20T10:50:22.798Z,100013.02
2023-06-20T10:52:51.889Z,100013.75
2023-06-20T10:55:25.691Z,100011.61
2023-06-20T10:57:55.800Z,100010.38
2023-06-20T11:00:25.821Z,100008.75
2023-06-20T11:02:57.088Z,100008.58
2023-06-20T11:05:31.017Z,100004.03
2023-06-20T11:08:09.180Z,100002.81
2023-06-20T11:10:40.947Z,100006.17
2023-06-20T11:13:10.049Z,100003.33
2023-06-20T11:15:39.527Z,100002.48
2023-06-20T11:18:11.046Z,100001.67
2023-06-20T11:20:42.042Z,100003.97
2023-06-20T11:23:12.669Z,99997.05
2023-06-20T11:25:46.059Z,99998.06
2023-06-20T11:28:16.292Z,99994.15
2023-06-20T11:30:47.789Z,99990.98
2023-06-20T11:33:18.107Z,99989.61
2023-06-20T11:35:54.528Z,99988.32
2023-06-20T11:38:27.272Z,99980.41
2023-06-20T11:41:05.908Z,99976.59
2023-06-20T11:43:42.486Z,99978.58
2023-06-20T11:46:14.048Z,99978.05
2023-06-20T11:48:58.403Z,99978.20
2023-06-20T11:51:28.301Z,99981.63
2023-06-20T11:54:09.107Z,99979.23
2023-06-20T11:56:38.082Z,99978.57
2023-06-20T11:59:07.173Z,99977.84
2023-06-20T12:01:37.113Z,99971.83
2023-06-20T12:04:08.279Z,99972.23
2023-06-20T12:06:39.062Z,99971.70
2023-06-20T12:09:17.926Z,99971.45
2023-06-20T12:11:51.109Z,99975.45
2023-06-20T12:14:20.617Z,99972.20
2023-06-20T12:16:50.755Z,99967.66
2023-06-20T12:19:24.000Z,99969.52
2023-06-20T12:21:53.001Z,99966.33
2023-06-20T12:24:24.910Z,99967.13
2023-06-20T12:26:55.402Z,99962.02
2023-06-20T12:29:24.253Z,99958.06
2023-06-20T12:31:53.815Z,99956.48
2023-06-20T12:34:25.225Z,99956.11
2023-06-20T12:36:54.319Z,99949.93
2023-06-20T12:39:23.356Z,99952.04
2023-06-20T12:41:52.410Z,99949.55
2023-06-20T12:44:21.834Z,99947.70
2023-06-20T12:46:51.314Z,99947.59
2023-06-20T12:49:21.657Z,99947.52
2023-06-20T12:51:50.835Z,99939.98
2023-06-20T12:54:19.717Z,99940.06
2023-06-20T12:56:48.520Z,99940.77
2023-06-20T12:59:19.841Z,99941.14
2023-06-20T13:01:49.614Z,99945.55
2023-06-20T13:04:19.168Z,99944.70
2023-06-20T13:06:48.680Z,99946.56
2023-06-20T13:09:17.876Z,99945.09
2023-06-20T13:11:47.912Z,99947.98
2023-06-20T13:14:18.593Z,99946.31
2023-06-20T13:16:51.114Z,99949.23
2023-06-20T13:19:22.722Z,99947.83
2023-06-20T13:21:52.260Z,99942.33
2023-06-20T13:24:21.684Z,99945.88
2023-06-20T13:26:51.486Z,99943.48
2023-06-20T13:29:20.488Z,99947.34
2023-06-20T13:31:50.286Z,99947.22
2023-06-20T13:34:20.408Z,99945.83
2023-06-20T13:36:49.495Z,99944.58
2023-06-20T13:39:18.700Z,99946.30
2023-06-20T13:41:47.887Z,99946.65
2023-06-20T13:44:16.883Z,99945.53
2023-06-20T13:46:46.289Z,99942.87
2023-06-20T13:49:15.506Z,99944.39
2023-06-20T13:51:44.803Z,99942.19
2023-06-20T13:54:14.069Z,99938.41
2023-06-20T13:56:42.870Z,99939.48
2023-06-20T13:59:11.882Z,99938.33
2023-06-20T14:01:42.704Z,99937.50
2023-06-20T14:04:12.081Z,99939.15
2023-06-20T14:06:41.951Z,99935.46
2023-06-20T14:09:11.350Z,99933.44
2023-06-20T14:11:40.614Z,99933.25
2023-06-20T14:14:10.769Z,99931.89
2023-06-20T14:16:39.872Z,99931.88
2023-06-20T14:19:09.150Z,99932.77
2023-06-20T14:21:38.437Z,99926.90
2023-06-20T14:24:07.448Z,99925.79
2023-06-20T14:26:36.428Z,99931.15
2023-06-20T14:29:05.230Z,99926.42
2023-06-20T14:31:34.370Z,99923.92
2023-06-20T14:34:03.614Z,99919.90
2023-06-20T14:36:36.712Z,99922.23
2023-06-20T14:39:06.333Z,99917.83
2023-06-20T14:41:35.307Z,99922.15
2023-06-20T14:44:05.428Z,99918.45
2023-06-20T14:46:34.648Z,99915.44
2023-06-20T14:49:03.726Z,99917.02
2023-06-20T14:51:32.631Z,99916.67
2023-06-20T14:54:01.410Z,99915.45
2023-06-20T14:56:30.509Z,99910.42
2023-06-20T14:58:59.493Z,99911.96
2023-06-20T15:01:28.834Z,99909.42
2023-06-20T15:03:58.475Z,99911.16
2023-06-20T15:06:27.819Z,99910.27
2023-06-20T15:08:57.193Z,99912.69
2023-06-20T15:11:25.986Z,99915.92
2023-06-20T15:13:55.003Z,99911.92
2023-06-20T15:16:24.053Z,99910.63
2023-06-20T15:18:52.757Z,99913.06
2023-06-20T15:21:22.369Z,99917.93
2023-06-20T15:23:51.365Z,99916.39
2023-06-20T15:26:20.171Z,99916.04
2023-06-20T15:28:49.354Z,99914.41
2023-06-20T15:31:19.199Z,99917.14
2023-06-20T15:33:48.865Z,99907.29
2023-06-20T15:36:17.889Z,99904.70
2023-06-20T15:38:47.115Z,99895.99
2023-06-20T15:41:17.188Z,99892.57
2023-06-20T15:43:46.489Z,99888.45
2023-06-20T15:46:15.913Z,99883.98
2023-06-20T15:49:01.281Z,99881.13
2023-06-20T15:51:31.067Z,99879.69
2023-06-20T15:54:00.279Z,99874.51
2023-06-20T15:56:29.814Z,99881.08
2023-06-20T15:58:59.323Z,99883.71
2023-06-20T16:01:29.124Z,99889.95
2023-06-20T16:03:58.403Z,99890.40
2023-06-20T16:06:28.636Z,99893.20
2023-06-20T16:08:57.708Z,99896.13
2023-06-20T16:11:30.294Z,99893.09
2023-06-20T16:13:59.747Z,99891.88
2023-06-20T16:16:29.481Z,99889.57
2023-06-20T16:18:58.175Z,99890.34
2023-06-20T16:21:32.099Z,99888.80
2023-06-20T16:24:01.173Z,99886.93
2023-06-20T16:26:30.183Z,99882.02
2023-06-20T16:29:00.714Z,99881.52
2023-06-20T16:31:29.707Z,99877.50
2023-06-20T16:33:58.604Z,99879.58
2023-06-20T16:36:27.580Z,99875.21
2023-06-20T16:38:56.685Z,99874.27
2023-06-20T16:41:26.623Z,99874.55
2023-06-20T16:43:55.638Z,99870.73
2023-06-20T16:46:24.725Z,99872.63
2023-06-20T16:48:53.670Z,99868.71
2023-06-20T16:51:22.885Z,99868.45
2023-06-20T16:53:52.400Z,99867.61
2023-06-20T16:56:24.003Z,99867.12
2023-06-20T16:58:54.947Z,99869.64
2023-06-20T17:01:24.688Z,99874.71
2023-06-20T17:03:53.797Z,99875.98
2023-06-20T17:06:22.622Z,99874.94
2023-06-20T17:08:51.565Z,99880.20
2023-06-20T17:11:23.350Z,99877.98
2023-06-20T17:13:54.367Z,99881.77
2023-06-20T17:16:23.599Z,99886.06
2023-06-20T17:18:53.272Z,99887.36
2023-06-20T17:21:23.874Z,99883.02
2023-06-20T17:23:53.898Z,99886.05
2023-06-20T17:26:22.638Z,99882.77
2023-06-20T17:28:51.498Z,99883.89
2023-06-20T17:31:21.144Z,99880.91
2023-06-20T17:33:50.298Z,99877.05
2023-06-20T17:36:19.504Z,99878.59
2023-06-20T17:38:49.101Z,99879.64
2023-06-20T17:41:19.523Z,99879.83
2023-06-20T17:43:48.744Z,99869.95
2023-06-20T17:46:18.277Z,99866.78
2023-06-20T17:48:47.350Z,99858.83
2023-06-20T17:51:16.330Z,99853.44
2023-06-20T17:53:45.961Z,99852.86
2023-06-20T17:56:15.833Z,99852.55
2023-06-20T17:58:44.838Z,99850.82
2023-06-20T18:01:14.123Z,99846.54
2023-06-20T18:03:43.487Z,99849.02
2023-06-20T18:06:13.036Z,99851.99
2023-06-20T18:08:42.651Z,99853.47
2023-06-20T18:11:13.011Z,99853.75
2023-06-20T18:13:41.746Z,99852.06
2023-06-20T18:16:15.214Z,99853.22
2023-06-20T18:18:45.842Z,99853.44
2023-06-20T18:21:15.105Z,99856.84
2023-06-20T18:23:44.399Z,99855.84
2023-06-20T18:26:16.746Z,99855.17
2023-06-20T18:28:45.804Z,99858.11
2023-06-20T18:31:15.079Z,99859.41
2023-06-20T18:33:44.245Z,99860.61
2023-06-20T18:36:13.511Z,99858.13
2023-06-20T18:38:44.180Z,99860.75
2023-06-20T18:41:13.247Z,99860.06
2023-06-20T18:43:43.655Z,99861.20
2023-06-20T18:46:12.899Z,99864.27
2023-06-20T18:48:42.610Z,99868.45
2023-06-20T18:51:13.226Z,99869.39
2023-06-20T18:53:42.577Z,99870.83
2023-06-20T18:56:14.856Z,99871.55
2023-06-20T18:58:45.902Z,99873.21
2023-06-20T19:01:17.749Z,99873.55
2023-06-20T19:03:48.176Z,99875.38
2023-06-20T19:06:18.374Z,99875.38
2023-06-20T19:08:48.080Z,99875.95
2023-06-20T19:11:20.506Z,99880.25
2023-06-20T19:13:51.071Z,99878.28
2023-06-20T19:16:22.823Z,99878.29
2023-06-20T19:18:52.148Z,99878.83
2023-06-20T19:21:22.260Z,99878.91
2023-06-20T19:23:53.594Z,99878.91
2023-06-20T19:26:22.809Z,99879.61
2023-06-20T19:28:52.000Z,99883.77
2023-06-20T19:31:22.180Z,99884.62
2023-06-20T19:33:51.413Z,99884.85
2023-06-20T19:36:20.718Z,99883.52
2023-06-20T19:38:50.154Z,99882.20
2023-06-20T19:41:19.848Z,99881.50
2023-06-20T19:43:49.122Z,99882.88
2023-06-20T19:46:18.962Z,99884.98
2023-06-20T19:48:50.289Z,99881.59
2023-06-20T19:51:20.331Z,99882.04
2023-06-20T19:53:51.618Z,99880.77
2023-06-20T19:56:20.773Z,99883.01
2023-06-20T19:58:52.829Z,99880.94
2023-06-20T20:01:23.141Z,99881.77
2023-06-20T20:03:52.831Z,99882.58
2023-06-20T20:06:23.611Z,99884.66
2023-06-20T20:08:52.494Z,99884.33
2023-06-20T20:11:22.467Z,99883.59
2023-06-20T20:13:52.110Z,99886.46
2023-06-20T20:16:21.861Z,99883.77
2023-06-20T20:18:51.450Z,99886.08
2023-06-20T20:21:20.551Z,99891.21
2023-06-20T20:23:50.037Z,99892.42
2023-06-20T20:26:20.368Z,99896.99
2023-06-20T20:31:24.180Z,99895.34
2023-06-20T20:33:54.098Z,99890.09
2023-06-20T20:36:24.309Z,99887.70
2023-06-20T20:38:53.799Z,99885.91
2023-06-20T20:41:22.915Z,99883.12
2023-06-20T20:43:52.228Z,99884.15
2023-06-20T20:46:22.652Z,99887.46
2023-06-20T20:48:53.055Z,99885.45
2023-06-20T20:51:22.476Z,99884.38
2023-06-20T20:53:51.846Z,99884.11
2023-06-20T20:56:20.844Z,99883.20
2023-06-20T20:58:50.038Z,99878.23
2023-06-20T21:01:19.031Z,99878.52
2023-06-20T21:03:48.384Z,99879.40
2023-06-20T21:06:17.845Z,99880.13
2023-06-20T21:08:46.747Z,99880.64
2023-06-20T21:11:16.865Z,99882.69
2023-06-20T21:13:47.825Z,99880.69
2023-06-20T21:16:17.000Z,99877.27
2023-06-20T21:18:46.325Z,99880.27
2023-06-20T21:21:15.807Z,99881.55
2023-06-20T21:23:44.708Z,99883.45
2023-06-20T21:26:16.651Z,99884.65
2023-06-20T21:28:45.454Z,99882.57
2023-06-20T21:31:14.722Z,99880.27
2023-06-20T21:33:44.357Z,99878.17
2023-06-20T21:36:13.359Z,99885.63
2023-06-20T21:38:43.783Z,99884.77
2023-06-20T21:41:14.710Z,99887.59
2023-06-20T21:43:44.640Z,99890.86
2023-06-20T21:46:13.850Z,99891.17
2023-06-20T21:48:43.241Z,99892.79
2023-06-20T21:51:12.341Z,99893.64
2023-06-20T21:53:41.685Z,99895.98
2023-06-20T21:56:10.519Z,99899.40
2023-06-20T21:58:39.932Z,99896.99
2023-06-20T22:01:13.274Z,99897.17
2023-06-20T22:03:42.300Z,99897.17
2023-06-20T22:06:12.653Z,99897.39
2023-06-20T22:08:42.864Z,99902.63
2023-06-20T22:11:11.658Z,99908.10
2023-06-20T22:13:41.043Z,99904.16
2023-06-20T22:16:09.628Z,99902.14
2023-06-20T22:18:38.610Z,99898.38
2023-06-20T22:21:07.518Z,99900.84
2023-06-20T22:23:36.613Z,99895.84
2023-06-20T22:26:05.487Z,99894.60
2023-06-20T22:28:34.506Z,99888.92
2023-06-20T22:31:03.808Z,99890.19
2023-06-20T22:33:32.899Z,99887.56
2023-06-20T22:36:01.998Z,99887.44
2023-06-20T22:38:32.423Z,99883.98
2023-06-20T22:41:01.391Z,99881.30
2023-06-20T22:43:32.559Z,99877.60
2023-06-20T22:46:01.478Z,99870.48
2023-06-20T22:48:31.355Z,99867.52
2023-06-20T22:51:00.330Z,99859.04
2023-06-20T22:53:29.231Z,99849.17
2023-06-20T22:55:58.426Z,99847.35
2023-06-20T22:58:27.111Z,99841.40
2023-06-20T23:00:56.087Z,99840.00
2023-06-20T23:03:25.989Z,99839.95
2023-06-20T23:05:55.429Z,99842.61
2023-06-20T23:08:24.311Z,99843.70
2023-06-20T23:10:53.419Z,99845.96
2023-06-20T23:13:22.194Z,99846.59
2023-06-20T23:15:52.287Z,99849.15
2023-06-20T23:18:24.203Z,99845.95
2023-06-20T23:20:54.096Z,99851.67
2023-06-20T23:23:23.077Z,99855.98
2023-06-20T23:25:51.972Z,99861.14
2023-06-20T23:28:23.417Z,99862.29
2023-06-20T23:30:52.432Z,99862.98
2023-06-20T23:33:21.842Z,99864.91
2023-06-20T23:35:51.438Z,99857.55
2023-06-20T23:38:20.219Z,99863.16
2023-06-20T23:40:49.556Z,99866.08
2023-06-20T23:43:18.777Z,99867.45
2023-06-20T23:45:49.032Z,99866.11
2023-06-20T23:48:18.146Z,99860.23
2023-06-20T23:50:47.156Z,99856.02
2023-06-20T23:53:16.309Z,99861.81
2023-06-20T23:55:45.841Z,99865.75
2023-06-20T23:58:14.606Z,99863.91
